sensor_id;sensor_type;location;lat;lon;timestamp;P1;durP1;ratioP1;P2;durP2;ratioP2
55776;SDS011;54079;44.540;18.784;2022-08-03T00:00:13;2.63;;;2.42;;
55776;SDS011;54079;44.540;18.784;2022-08-03T00:02:40;2.63;;;2.38;;
55776;SDS011;54079;44.540;18.784;2022-08-03T00:05:06;3.35;;;2.35;;
55776;SDS011;54079;44.540;18.784;2022-08-03T00:07:32;2.67;;;2.47;;
55776;SDS011;54079;44.540;18.784;2022-08-03T00:09:59;2.80;;;2.60;;
55776;SDS011;54079;44.540;18.784;2022-08-03T00:12:24;2.10;;;2.00;;
55776;SDS011;54079;44.540;18.784;2022-08-03T00:14:50;3.28;;;2.38;;
55776;SDS011;54079;44.540;18.784;2022-08-03T00:17:16;3.58;;;2.50;;
55776;SDS011;54079;44.540;18.784;2022-08-03T00:19:42;2.70;;;2.50;;
55776;SDS011;54079;44.540;18.784;2022-08-03T00:22:08;3.28;;;2.40;;
55776;SDS011;54079;44.540;18.784;2022-08-03T00:24:34;3.55;;;2.78;;
55776;SDS011;54079;44.540;18.784;2022-08-03T00:27:00;4.32;;;2.83;;
55776;SDS011;54079;44.540;18.784;2022-08-03T00:29:26;5.20;;;3.53;;
55776;SDS011;54079;44.540;18.784;2022-08-03T00:31:52;3.63;;;2.70;;
55776;SDS011;54079;44.540;18.784;2022-08-03T00:34:18;3.30;;;2.88;;
55776;SDS011;54079;44.540;18.784;2022-08-03T00:36:44;3.28;;;2.70;;
55776;SDS011;54079;44.540;18.784;2022-08-03T00:39:10;3.45;;;3.10;;
55776;SDS011;54079;44.540;18.784;2022-08-03T00:41:35;2.72;;;2.53;;
55776;SDS011;54079;44.540;18.784;2022-08-03T00:44:01;3.17;;;2.88;;
55776;SDS011;54079;44.540;18.784;2022-08-03T00:46:28;3.70;;;3.10;;
55776;SDS011;54079;44.540;18.784;2022-08-03T00:48:54;3.47;;;2.55;;
55776;SDS011;54079;44.540;18.784;2022-08-03T00:51:20;2.53;;;2.30;;
55776;SDS011;54079;44.540;18.784;2022-08-03T00:53:46;3.70;;;2.17;;
55776;SDS011;54079;44.540;18.784;2022-08-03T00:56:14;2.80;;;2.13;;
55776;SDS011;54079;44.540;18.784;2022-08-03T00:58:40;2.80;;;2.33;;
55776;SDS011;54079;44.540;18.784;2022-08-03T01:01:09;2.25;;;2.05;;
55776;SDS011;54079;44.540;18.784;2022-08-03T01:03:36;3.17;;;2.65;;
55776;SDS011;54079;44.540;18.784;2022-08-03T01:06:14;3.25;;;2.67;;
55776;SDS011;54079;44.540;18.784;2022-08-03T01:08:47;3.73;;;2.43;;
55776;SDS011;54079;44.540;18.784;2022-08-03T01:14:11;4.80;;;2.70;;
55776;SDS011;54079;44.540;18.784;2022-08-03T01:30:16;2.10;;;2.00;;
55776;SDS011;54079;44.540;18.784;2022-08-03T01:32:51;2.30;;;2.20;;
55776;SDS011;54079;44.540;18.784;2022-08-03T01:35:27;2.92;;;2.45;;
55776;SDS011;54079;44.540;18.784;2022-08-03T01:38:04;1.80;;;1.70;;
55776;SDS011;54079;44.540;18.784;2022-08-03T01:40:35;2.83;;;1.98;;
55776;SDS011;54079;44.540;18.784;2022-08-03T01:43:03;2.33;;;2.13;;
55776;SDS011;54079;44.540;18.784;2022-08-03T01:45:33;2.72;;;2.47;;
55776;SDS011;54079;44.540;18.784;2022-08-03T01:48:00;2.70;;;2.50;;
55776;SDS011;54079;44.540;18.784;2022-08-03T01:50:28;2.45;;;2.05;;
55776;SDS011;54079;44.540;18.784;2022-08-03T01:52:56;2.78;;;2.50;;
55776;SDS011;54079;44.540;18.784;2022-08-03T01:55:23;5.80;;;2.30;;
55776;SDS011;54079;44.540;18.784;2022-08-03T01:57:54;2.50;;;2.33;;
55776;SDS011;54079;44.540;18.784;2022-08-03T02:00:22;2.50;;;2.30;;
55776;SDS011;54079;44.540;18.784;2022-08-03T02:02:49;1.75;;;1.65;;
55776;SDS011;54079;44.540;18.784;2022-08-03T02:05:17;2.72;;;2.45;;
55776;SDS011;54079;44.540;18.784;2022-08-03T02:07:45;3.22;;;2.50;;
55776;SDS011;54079;44.540;18.784;2022-08-03T02:10:13;3.47;;;2.60;;
55776;SDS011;54079;44.540;18.784;2022-08-03T02:12:43;2.85;;;2.65;;
55776;SDS011;54079;44.540;18.784;2022-08-03T02:15:10;2.92;;;2.72;;
55776;SDS011;54079;44.540;18.784;2022-08-03T02:17:39;2.78;;;2.30;;
55776;SDS011;54079;44.540;18.784;2022-08-03T02:20:07;2.90;;;2.22;;
55776;SDS011;54079;44.540;18.784;2022-08-03T02:22:35;3.05;;;2.35;;
55776;SDS011;54079;44.540;18.784;2022-08-03T02:25:05;3.75;;;2.78;;
55776;SDS011;54079;44.540;18.784;2022-08-03T02:27:33;4.03;;;2.50;;
55776;SDS011;54079;44.540;18.784;2022-08-03T02:30:03;3.03;;;2.63;;
55776;SDS011;54079;44.540;18.784;2022-08-03T02:32:33;2.80;;;2.60;;
55776;SDS011;54079;44.540;18.784;2022-08-03T02:35:03;3.65;;;2.58;;
55776;SDS011;54079;44.540;18.784;2022-08-03T02:37:31;2.72;;;2.20;;
55776;SDS011;54079;44.540;18.784;2022-08-03T02:40:01;2.42;;;2.20;;
55776;SDS011;54079;44.540;18.784;2022-08-03T02:42:29;4.63;;;2.78;;
55776;SDS011;54079;44.540;18.784;2022-08-03T02:44:57;5.72;;;2.63;;
55776;SDS011;54079;44.540;18.784;2022-08-03T02:47:26;2.42;;;2.22;;
55776;SDS011;54079;44.540;18.784;2022-08-03T02:49:54;2.50;;;2.15;;
55776;SDS011;54079;44.540;18.784;2022-08-03T02:52:24;2.22;;;2.10;;
55776;SDS011;54079;44.540;18.784;2022-08-03T02:54:55;2.95;;;2.67;;
55776;SDS011;54079;44.540;18.784;2022-08-03T02:57:23;2.30;;;2.10;;
55776;SDS011;54079;44.540;18.784;2022-08-03T02:59:52;2.15;;;1.95;;
55776;SDS011;54079;44.540;18.784;2022-08-03T03:02:20;3.00;;;2.45;;
55776;SDS011;54079;44.540;18.784;2022-08-03T03:04:49;4.93;;;2.88;;
55776;SDS011;54079;44.540;18.784;2022-08-03T03:07:16;2.78;;;2.58;;
55776;SDS011;54079;44.540;18.784;2022-08-03T03:09:42;2.35;;;2.20;;
55776;SDS011;54079;44.540;18.784;2022-08-03T03:12:10;3.17;;;2.97;;
55776;SDS011;54079;44.540;18.784;2022-08-03T03:14:37;2.83;;;2.63;;
55776;SDS011;54079;44.540;18.784;2022-08-03T03:17:05;2.53;;;2.33;;
55776;SDS011;54079;44.540;18.784;2022-08-03T03:19:32;3.42;;;3.13;;
55776;SDS011;54079;44.540;18.784;2022-08-03T03:21:59;2.45;;;2.20;;
55776;SDS011;54079;44.540;18.784;2022-08-03T03:24:26;2.53;;;2.33;;
55776;SDS011;54079;44.540;18.784;2022-08-03T03:26:53;2.38;;;2.28;;
55776;SDS011;54079;44.540;18.784;2022-08-03T03:29:20;1.90;;;1.80;;
55776;SDS011;54079;44.540;18.784;2022-08-03T03:31:46;2.72;;;2.45;;
55776;SDS011;54079;44.540;18.784;2022-08-03T03:34:13;2.53;;;2.28;;
55776;SDS011;54079;44.540;18.784;2022-08-03T03:36:39;2.95;;;2.28;;
55776;SDS011;54079;44.540;18.784;2022-08-03T03:39:05;2.22;;;2.13;;
55776;SDS011;54079;44.540;18.784;2022-08-03T03:41:31;3.95;;;3.03;;
55776;SDS011;54079;44.540;18.784;2022-08-03T03:43:58;6.05;;;2.60;;
55776;SDS011;54079;44.540;18.784;2022-08-03T03:46:24;2.80;;;2.60;;
55776;SDS011;54079;44.540;18.784;2022-08-03T03:48:51;2.85;;;2.63;;
55776;SDS011;54079;44.540;18.784;2022-08-03T03:51:17;3.53;;;2.90;;
55776;SDS011;54079;44.540;18.784;2022-08-03T03:53:59;3.25;;;2.72;;
55776;SDS011;54079;44.540;18.784;2022-08-03T03:56:29;2.78;;;2.47;;
55776;SDS011;54079;44.540;18.784;2022-08-03T03:58:55;2.80;;;2.60;;
55776;SDS011;54079;44.540;18.784;2022-08-03T04:01:21;2.85;;;2.65;;
55776;SDS011;54079;44.540;18.784;2022-08-03T04:03:47;3.08;;;2.60;;
55776;SDS011;54079;44.540;18.784;2022-08-03T04:06:13;3.40;;;2.85;;
55776;SDS011;54079;44.540;18.784;2022-08-03T04:08:59;2.50;;;2.30;;
55776;SDS011;54079;44.540;18.784;2022-08-03T04:11:53;2.67;;;2.47;;
55776;SDS011;54079;44.540;18.784;2022-08-03T04:16:57;2.67;;;1.93;;
55776;SDS011;54079;44.540;18.784;2022-08-03T04:19:28;2.88;;;2.55;;
55776;SDS011;54079;44.540;18.784;2022-08-03T04:21:59;2.80;;;2.60;;
55776;SDS011;54079;44.540;18.784;2022-08-03T04:24:32;2.88;;;2.67;;
55776;SDS011;54079;44.540;18.784;2022-08-03T04:27:04;2.63;;;2.42;;
55776;SDS011;54079;44.540;18.784;2022-08-03T04:29:34;2.60;;;2.40;;
55776;SDS011;54079;44.540;18.784;2022-08-03T04:32:01;3.63;;;2.70;;
55776;SDS011;54079;44.540;18.784;2022-08-03T04:34:31;2.42;;;2.22;;
55776;SDS011;54079;44.540;18.784;2022-08-03T04:36:58;2.38;;;2.17;;
55776;SDS011;54079;44.540;18.784;2022-08-03T04:39:26;3.25;;;2.95;;
55776;SDS011;54079;44.540;18.784;2022-08-03T04:41:55;2.63;;;2.42;;
55776;SDS011;54079;44.540;18.784;2022-08-03T04:44:24;4.03;;;3.63;;
55776;SDS011;54079;44.540;18.784;2022-08-03T04:46:52;3.47;;;3.17;;
55776;SDS011;54079;44.540;18.784;2022-08-03T04:49:20;3.17;;;2.97;;
55776;SDS011;54079;44.540;18.784;2022-08-03T04:51:47;2.88;;;2.67;;
55776;SDS011;54079;44.540;18.784;2022-08-03T04:54:14;2.58;;;2.38;;
55776;SDS011;54079;44.540;18.784;2022-08-03T04:56:41;3.55;;;2.95;;
55776;SDS011;54079;44.540;18.784;2022-08-03T04:59:10;2.88;;;2.00;;
55776;SDS011;54079;44.540;18.784;2022-08-03T05:01:38;2.35;;;2.15;;
55776;SDS011;54079;44.540;18.784;2022-08-03T05:04:05;2.30;;;2.10;;
55776;SDS011;54079;44.540;18.784;2022-08-03T05:06:31;2.00;;;1.88;;
55776;SDS011;54079;44.540;18.784;2022-08-03T05:08:57;2.72;;;2.40;;
55776;SDS011;54079;44.540;18.784;2022-08-03T05:11:23;2.95;;;2.75;;
55776;SDS011;54079;44.540;18.784;2022-08-03T05:13:49;2.78;;;2.53;;
55776;SDS011;54079;44.540;18.784;2022-08-03T05:16:15;2.67;;;2.47;;
55776;SDS011;54079;44.540;18.784;2022-08-03T05:18:41;2.47;;;2.38;;
55776;SDS011;54079;44.540;18.784;2022-08-03T05:21:08;2.72;;;2.50;;
55776;SDS011;54079;44.540;18.784;2022-08-03T05:23:35;2.33;;;2.13;;
55776;SDS011;54079;44.540;18.784;2022-08-03T05:26:02;2.38;;;2.28;;
55776;SDS011;54079;44.540;18.784;2022-08-03T05:28:28;4.03;;;3.08;;
55776;SDS011;54079;44.540;18.784;2022-08-03T05:30:54;3.17;;;2.88;;
55776;SDS011;54079;44.540;18.784;2022-08-03T05:33:20;3.03;;;2.70;;
55776;SDS011;54079;44.540;18.784;2022-08-03T05:35:46;3.00;;;2.72;;
55776;SDS011;54079;44.540;18.784;2022-08-03T05:38:12;2.85;;;2.65;;
55776;SDS011;54079;44.540;18.784;2022-08-03T05:40:38;3.78;;;3.47;;
55776;SDS011;54079;44.540;18.784;2022-08-03T05:43:04;6.28;;;5.55;;
55776;SDS011;54079;44.540;18.784;2022-08-03T05:45:30;3.55;;;3.25;;
55776;SDS011;54079;44.540;18.784;2022-08-03T05:47:56;4.70;;;4.28;;
55776;SDS011;54079;44.540;18.784;2022-08-03T05:50:22;18.10;;;16.40;;
55776;SDS011;54079;44.540;18.784;2022-08-03T05:52:48;16.58;;;15.07;;
55776;SDS011;54079;44.540;18.784;2022-08-03T05:55:14;11.93;;;10.75;;
55776;SDS011;54079;44.540;18.784;2022-08-03T05:57:40;7.88;;;7.07;;
55776;SDS011;54079;44.540;18.784;2022-08-03T06:00:08;13.02;;;11.88;;
55776;SDS011;54079;44.540;18.784;2022-08-03T06:02:35;4.22;;;3.83;;
55776;SDS011;54079;44.540;18.784;2022-08-03T06:05:02;8.98;;;6.07;;
55776;SDS011;54079;44.540;18.784;2022-08-03T06:07:28;6.68;;;4.68;;
55776;SDS011;54079;44.540;18.784;2022-08-03T06:09:54;16.05;;;14.55;;
55776;SDS011;54079;44.540;18.784;2022-08-03T06:12:20;15.95;;;14.70;;
55776;SDS011;54079;44.540;18.784;2022-08-03T06:14:46;11.98;;;10.80;;
55776;SDS011;54079;44.540;18.784;2022-08-03T06:17:12;22.33;;;20.27;;
55776;SDS011;54079;44.540;18.784;2022-08-03T06:19:38;15.90;;;14.70;;
55776;SDS011;54079;44.540;18.784;2022-08-03T06:22:04;8.45;;;7.18;;
55776;SDS011;54079;44.540;18.784;2022-08-03T06:24:30;13.70;;;11.10;;
55776;SDS011;54079;44.540;18.784;2022-08-03T06:26:57;7.88;;;7.18;;
55776;SDS011;54079;44.540;18.784;2022-08-03T06:29:23;8.15;;;7.40;;
55776;SDS011;54079;44.540;18.784;2022-08-03T06:31:49;16.33;;;14.93;;
55776;SDS011;54079;44.540;18.784;2022-08-03T06:34:15;20.17;;;18.48;;
55776;SDS011;54079;44.540;18.784;2022-08-03T06:36:41;10.55;;;9.60;;
55776;SDS011;54079;44.540;18.784;2022-08-03T06:39:06;16.08;;;14.77;;
55776;SDS011;54079;44.540;18.784;2022-08-03T06:41:32;15.90;;;14.70;;
55776;SDS011;54079;44.540;18.784;2022-08-03T06:43:58;12.10;;;11.15;;
55776;SDS011;54079;44.540;18.784;2022-08-03T06:46:24;19.38;;;17.73;;
55776;SDS011;54079;44.540;18.784;2022-08-03T06:48:51;24.33;;;22.42;;
55776;SDS011;54079;44.540;18.784;2022-08-03T06:51:17;25.42;;;23.42;;
55776;SDS011;54079;44.540;18.784;2022-08-03T06:53:43;25.38;;;23.38;;
55776;SDS011;54079;44.540;18.784;2022-08-03T06:56:09;26.15;;;24.05;;
55776;SDS011;54079;44.540;18.784;2022-08-03T06:58:35;27.75;;;25.50;;
55776;SDS011;54079;44.540;18.784;2022-08-03T07:01:01;25.10;;;23.15;;
55776;SDS011;54079;44.540;18.784;2022-08-03T07:03:27;12.45;;;11.50;;
55776;SDS011;54079;44.540;18.784;2022-08-03T07:05:55;20.95;;;19.35;;
55776;SDS011;54079;44.540;18.784;2022-08-03T07:08:21;23.65;;;21.58;;
55776;SDS011;54079;44.540;18.784;2022-08-03T07:10:48;18.25;;;16.85;;
55776;SDS011;54079;44.540;18.784;2022-08-03T07:13:14;17.83;;;16.33;;
55776;SDS011;54079;44.540;18.784;2022-08-03T07:15:40;11.02;;;10.13;;
55776;SDS011;54079;44.540;18.784;2022-08-03T07:18:06;4.25;;;3.78;;
55776;SDS011;54079;44.540;18.784;2022-08-03T07:20:31;6.32;;;5.55;;
55776;SDS011;54079;44.540;18.784;2022-08-03T07:22:58;9.52;;;8.63;;
55776;SDS011;54079;44.540;18.784;2022-08-03T07:25:24;9.18;;;8.57;;
55776;SDS011;54079;44.540;18.784;2022-08-03T07:27:50;8.77;;;8.07;;
55776;SDS011;54079;44.540;18.784;2022-08-03T07:30:16;8.95;;;8.25;;
55776;SDS011;54079;44.540;18.784;2022-08-03T07:32:42;13.88;;;12.77;;
55776;SDS011;54079;44.540;18.784;2022-08-03T07:35:08;4.18;;;3.78;;
55776;SDS011;54079;44.540;18.784;2022-08-03T07:37:35;14.45;;;13.38;;
55776;SDS011;54079;44.540;18.784;2022-08-03T07:40:02;14.73;;;13.43;;
55776;SDS011;54079;44.540;18.784;2022-08-03T07:42:29;7.70;;;7.18;;
55776;SDS011;54079;44.540;18.784;2022-08-03T07:44:55;11.18;;;10.32;;
55776;SDS011;54079;44.540;18.784;2022-08-03T07:47:22;8.77;;;8.18;;
55776;SDS011;54079;44.540;18.784;2022-08-03T07:49:50;15.38;;;14.20;;
55776;SDS011;54079;44.540;18.784;2022-08-03T07:52:17;11.02;;;9.93;;
55776;SDS011;54079;44.540;18.784;2022-08-03T07:55:01;4.30;;;3.70;;
55776;SDS011;54079;44.540;18.784;2022-08-03T07:57:28;11.38;;;10.48;;
55776;SDS011;54079;44.540;18.784;2022-08-03T07:59:54;11.55;;;10.65;;
55776;SDS011;54079;44.540;18.784;2022-08-03T08:02:20;9.60;;;8.80;;
55776;SDS011;54079;44.540;18.784;2022-08-03T08:04:46;5.75;;;5.35;;
55776;SDS011;54079;44.540;18.784;2022-08-03T08:07:30;8.73;;;8.02;;
55776;SDS011;54079;44.540;18.784;2022-08-03T08:09:56;5.13;;;4.72;;
55776;SDS011;54079;44.540;18.784;2022-08-03T08:12:22;6.20;;;5.60;;
55776;SDS011;54079;44.540;18.784;2022-08-03T08:14:48;3.40;;;3.15;;
55776;SDS011;54079;44.540;18.784;2022-08-03T08:17:14;6.50;;;6.00;;
55776;SDS011;54079;44.540;18.784;2022-08-03T08:19:40;6.32;;;5.72;;
55776;SDS011;54079;44.540;18.784;2022-08-03T08:22:06;5.18;;;4.10;;
55776;SDS011;54079;44.540;18.784;2022-08-03T08:24:32;6.00;;;3.03;;
55776;SDS011;54079;44.540;18.784;2022-08-03T08:26:58;9.60;;;8.95;;
55776;SDS011;54079;44.540;18.784;2022-08-03T08:29:25;18.15;;;16.75;;
55776;SDS011;54079;44.540;18.784;2022-08-03T08:31:51;13.85;;;12.68;;
55776;SDS011;54079;44.540;18.784;2022-08-03T08:34:17;3.90;;;3.70;;
55776;SDS011;54079;44.540;18.784;2022-08-03T08:36:43;4.70;;;4.40;;
55776;SDS011;54079;44.540;18.784;2022-08-03T08:39:09;8.70;;;8.10;;
55776;SDS011;54079;44.540;18.784;2022-08-03T08:41:36;11.10;;;9.82;;
55776;SDS011;54079;44.540;18.784;2022-08-03T08:44:02;11.95;;;11.15;;
55776;SDS011;54079;44.540;18.784;2022-08-03T08:46:30;9.60;;;8.85;;
55776;SDS011;54079;44.540;18.784;2022-08-03T08:48:57;15.30;;;14.10;;
55776;SDS011;54079;44.540;18.784;2022-08-03T08:51:29;10.15;;;9.10;;
55776;SDS011;54079;44.540;18.784;2022-08-03T08:53:56;12.52;;;11.63;;
55776;SDS011;54079;44.540;18.784;2022-08-03T08:56:25;10.18;;;9.32;;
55776;SDS011;54079;44.540;18.784;2022-08-03T08:58:53;10.52;;;9.73;;
55776;SDS011;54079;44.540;18.784;2022-08-03T09:01:23;8.25;;;7.65;;
55776;SDS011;54079;44.540;18.784;2022-08-03T09:03:49;4.97;;;4.50;;
55776;SDS011;54079;44.540;18.784;2022-08-03T09:06:17;6.25;;;5.78;;
55776;SDS011;54079;44.540;18.784;2022-08-03T09:08:43;4.88;;;4.53;;
55776;SDS011;54079;44.540;18.784;2022-08-03T09:11:09;5.53;;;5.10;;
55776;SDS011;54079;44.540;18.784;2022-08-03T09:13:35;4.38;;;3.97;;
55776;SDS011;54079;44.540;18.784;2022-08-03T09:16:20;7.97;;;7.18;;
55776;SDS011;54079;44.540;18.784;2022-08-03T09:18:51;9.93;;;9.23;;
55776;SDS011;54079;44.540;18.784;2022-08-03T09:21:20;9.10;;;8.40;;
55776;SDS011;54079;44.540;18.784;2022-08-03T09:23:56;4.88;;;4.47;;
55776;SDS011;54079;44.540;18.784;2022-08-03T09:26:26;9.77;;;8.93;;
55776;SDS011;54079;44.540;18.784;2022-08-03T09:31:33;10.05;;;9.32;;
55776;SDS011;54079;44.540;18.784;2022-08-03T09:34:07;3.15;;;2.20;;
55776;SDS011;54079;44.540;18.784;2022-08-03T09:36:35;4.50;;;4.20;;
55776;SDS011;54079;44.540;18.784;2022-08-03T09:39:08;5.78;;;5.28;;
55776;SDS011;54079;44.540;18.784;2022-08-03T09:41:36;5.55;;;4.78;;
55776;SDS011;54079;44.540;18.784;2022-08-03T09:44:03;6.70;;;6.10;;
55776;SDS011;54079;44.540;18.784;2022-08-03T09:46:29;5.80;;;5.30;;
55776;SDS011;54079;44.540;18.784;2022-08-03T09:49:07;4.05;;;3.75;;
55776;SDS011;54079;44.540;18.784;2022-08-03T09:51:35;7.05;;;5.90;;
55776;SDS011;54079;44.540;18.784;2022-08-03T09:54:01;9.02;;;6.07;;
55776;SDS011;54079;44.540;18.784;2022-08-03T09:56:41;6.57;;;5.72;;
55776;SDS011;54079;44.540;18.784;2022-08-03T09:59:08;4.60;;;4.03;;
55776;SDS011;54079;44.540;18.784;2022-08-03T10:01:35;2.40;;;2.20;;
55776;SDS011;54079;44.540;18.784;2022-08-03T10:04:05;7.00;;;6.50;;
55776;SDS011;54079;44.540;18.784;2022-08-03T10:06:44;1.92;;;1.83;;
55776;SDS011;54079;44.540;18.784;2022-08-03T10:09:25;2.55;;;1.95;;
55776;SDS011;54079;44.540;18.784;2022-08-03T10:11:51;6.40;;;5.80;;
55776;SDS011;54079;44.540;18.784;2022-08-03T10:14:17;4.28;;;3.88;;
55776;SDS011;54079;44.540;18.784;2022-08-03T10:17:01;4.63;;;4.00;;
55776;SDS011;54079;44.540;18.784;2022-08-03T10:19:28;4.55;;;4.15;;
55776;SDS011;54079;44.540;18.784;2022-08-03T10:21:55;3.55;;;3.33;;
55776;SDS011;54079;44.540;18.784;2022-08-03T10:24:27;5.78;;;2.28;;
55776;SDS011;54079;44.540;18.784;2022-08-03T10:27:02;5.95;;;4.88;;
55776;SDS011;54079;44.540;18.784;2022-08-03T10:29:41;3.88;;;3.50;;
55776;SDS011;54079;44.540;18.784;2022-08-03T10:32:13;6.33;;;5.70;;
55776;SDS011;54079;44.540;18.784;2022-08-03T10:34:45;5.88;;;5.28;;
55776;SDS011;54079;44.540;18.784;2022-08-03T10:37:14;5.20;;;4.80;;
55776;SDS011;54079;44.540;18.784;2022-08-03T10:39:42;3.35;;;2.85;;
55776;SDS011;54079;44.540;18.784;2022-08-03T10:42:22;6.40;;;5.80;;
55776;SDS011;54079;44.540;18.784;2022-08-03T10:44:52;2.03;;;1.92;;
55776;SDS011;54079;44.540;18.784;2022-08-03T10:47:26;2.03;;;1.88;;
55776;SDS011;54079;44.540;18.784;2022-08-03T10:49:53;6.50;;;6.00;;
55776;SDS011;54079;44.540;18.784;2022-08-03T10:52:19;8.30;;;7.50;;
55776;SDS011;54079;44.540;18.784;2022-08-03T10:54:45;7.18;;;5.80;;
55776;SDS011;54079;44.540;18.784;2022-08-03T10:57:46;6.43;;;5.93;;
55776;SDS011;54079;44.540;18.784;2022-08-03T11:00:18;4.15;;;3.22;;
55776;SDS011;54079;44.540;18.784;2022-08-03T11:05:35;4.35;;;3.97;;
55776;SDS011;54079;44.540;18.784;2022-08-03T11:08:18;7.07;;;6.47;;
55776;SDS011;54079;44.540;18.784;2022-08-03T11:10:46;3.38;;;3.17;;
55776;SDS011;54079;44.540;18.784;2022-08-03T11:13:14;4.43;;;4.13;;
55776;SDS011;54079;44.540;18.784;2022-08-03T11:15:43;7.05;;;6.45;;
55776;SDS011;54079;44.540;18.784;2022-08-03T11:18:11;15.85;;;14.52;;
55776;SDS011;54079;44.540;18.784;2022-08-03T11:20:51;21.52;;;19.73;;
55776;SDS011;54079;44.540;18.784;2022-08-03T11:23:43;14.93;;;13.65;;
55776;SDS011;54079;44.540;18.784;2022-08-03T11:28:46;9.30;;;8.50;;
55776;SDS011;54079;44.540;18.784;2022-08-03T11:39:37;11.88;;;10.77;;
55776;SDS011;54079;44.540;18.784;2022-08-03T11:44:54;6.35;;;5.57;;
55776;SDS011;54079;44.540;18.784;2022-08-03T11:47:22;3.58;;;3.35;;
55776;SDS011;54079;44.540;18.784;2022-08-03T11:49:52;1.92;;;1.83;;
55776;SDS011;54079;44.540;18.784;2022-08-03T11:52:19;3.08;;;1.95;;
55776;SDS011;54079;44.540;18.784;2022-08-03T11:54:49;3.90;;;3.60;;
55776;SDS011;54079;44.540;18.784;2022-08-03T11:57:32;3.00;;;2.80;;
55776;SDS011;54079;44.540;18.784;2022-08-03T11:59:59;3.33;;;3.05;;
55776;SDS011;54079;44.540;18.784;2022-08-03T12:02:25;2.58;;;2.38;;
55776;SDS011;54079;44.540;18.784;2022-08-03T12:04:55;6.05;;;5.57;;
55776;SDS011;54079;44.540;18.784;2022-08-03T12:07:23;4.95;;;4.60;;
55776;SDS011;54079;44.540;18.784;2022-08-03T12:10:07;3.10;;;2.13;;
55776;SDS011;54079;44.540;18.784;2022-08-03T12:12:38;3.28;;;2.97;;
55776;SDS011;54079;44.540;18.784;2022-08-03T12:15:05;2.92;;;2.72;;
55776;SDS011;54079;44.540;18.784;2022-08-03T12:17:36;3.20;;;2.78;;
55776;SDS011;54079;44.540;18.784;2022-08-03T12:20:04;3.80;;;3.50;;
55776;SDS011;54079;44.540;18.784;2022-08-03T12:22:35;3.08;;;2.38;;
55776;SDS011;54079;44.540;18.784;2022-08-03T12:25:03;2.15;;;1.90;;
55776;SDS011;54079;44.540;18.784;2022-08-03T12:27:30;2.20;;;2.10;;
55776;SDS011;54079;44.540;18.784;2022-08-03T12:29:57;2.65;;;2.47;;
55776;SDS011;54079;44.540;18.784;2022-08-03T12:32:23;2.40;;;2.30;;
55776;SDS011;54079;44.540;18.784;2022-08-03T12:34:50;4.72;;;2.78;;
55776;SDS011;54079;44.540;18.784;2022-08-03T12:37:20;2.97;;;2.53;;
55776;SDS011;54079;44.540;18.784;2022-08-03T12:39:54;5.07;;;4.68;;
55776;SDS011;54079;44.540;18.784;2022-08-03T12:42:33;2.63;;;2.42;;
55776;SDS011;54079;44.540;18.784;2022-08-03T12:47:56;2.72;;;2.53;;
55776;SDS011;54079;44.540;18.784;2022-08-03T12:50:29;2.40;;;2.20;;
55776;SDS011;54079;44.540;18.784;2022-08-03T12:52:56;4.50;;;3.10;;
55776;SDS011;54079;44.540;18.784;2022-08-03T12:55:24;2.83;;;2.63;;
55776;SDS011;54079;44.540;18.784;2022-08-03T12:58:00;2.65;;;2.42;;
55776;SDS011;54079;44.540;18.784;2022-08-03T13:00:28;2.35;;;2.15;;
55776;SDS011;54079;44.540;18.784;2022-08-03T13:02:58;6.38;;;3.78;;
55776;SDS011;54079;44.540;18.784;2022-08-03T13:05:33;9.35;;;8.40;;
55776;SDS011;54079;44.540;18.784;2022-08-03T13:08:20;6.70;;;5.97;;
55776;SDS011;54079;44.540;18.784;2022-08-03T13:10:47;7.50;;;5.75;;
55776;SDS011;54079;44.540;18.784;2022-08-03T13:13:13;3.70;;;3.40;;
55776;SDS011;54079;44.540;18.784;2022-08-03T13:15:40;2.83;;;2.63;;
55776;SDS011;54079;44.540;18.784;2022-08-03T13:18:06;2.30;;;2.20;;
55776;SDS011;54079;44.540;18.784;2022-08-03T13:20:33;2.28;;;1.98;;
55776;SDS011;54079;44.540;18.784;2022-08-03T13:22:59;2.40;;;2.20;;
55776;SDS011;54079;44.540;18.784;2022-08-03T13:25:25;2.20;;;2.00;;
55776;SDS011;54079;44.540;18.784;2022-08-03T13:27:51;5.38;;;2.50;;
55776;SDS011;54079;44.540;18.784;2022-08-03T13:30:17;2.50;;;2.30;;
55776;SDS011;54079;44.540;18.784;2022-08-03T13:32:43;3.17;;;2.05;;
55776;SDS011;54079;44.540;18.784;2022-08-03T13:35:10;3.08;;;2.88;;
55776;SDS011;54079;44.540;18.784;2022-08-03T13:37:36;2.67;;;2.45;;
55776;SDS011;54079;44.540;18.784;2022-08-03T13:40:03;4.18;;;3.83;;
55776;SDS011;54079;44.540;18.784;2022-08-03T13:42:31;5.85;;;5.35;;
55776;SDS011;54079;44.540;18.784;2022-08-03T13:44:58;2.38;;;2.28;;
55776;SDS011;54079;44.540;18.784;2022-08-03T13:47:25;4.25;;;3.95;;
55776;SDS011;54079;44.540;18.784;2022-08-03T13:49:52;3.53;;;3.17;;
55776;SDS011;54079;44.540;18.784;2022-08-03T13:52:18;2.72;;;2.13;;
55776;SDS011;54079;44.540;18.784;2022-08-03T13:54:45;3.03;;;2.53;;
55776;SDS011;54079;44.540;18.784;2022-08-03T13:57:10;3.05;;;2.33;;
55776;SDS011;54079;44.540;18.784;2022-08-03T13:59:38;2.28;;;2.08;;
55776;SDS011;54079;44.540;18.784;2022-08-03T14:02:04;2.65;;;2.45;;
55776;SDS011;54079;44.540;18.784;2022-08-03T14:04:30;3.75;;;3.45;;
55776;SDS011;54079;44.540;18.784;2022-08-03T14:06:55;4.80;;;4.40;;
55776;SDS011;54079;44.540;18.784;2022-08-03T14:09:21;6.38;;;5.88;;
55776;SDS011;54079;44.540;18.784;2022-08-03T14:11:47;2.92;;;2.72;;
55776;SDS011;54079;44.540;18.784;2022-08-03T14:14:13;3.03;;;2.80;;
55776;SDS011;54079;44.540;18.784;2022-08-03T14:16:39;3.15;;;2.40;;
55776;SDS011;54079;44.540;18.784;2022-08-03T14:19:05;2.55;;;2.35;;
55776;SDS011;54079;44.540;18.784;2022-08-03T14:21:32;3.47;;;2.75;;
55776;SDS011;54079;44.540;18.784;2022-08-03T14:23:58;3.45;;;3.25;;
55776;SDS011;54079;44.540;18.784;2022-08-03T14:26:24;3.15;;;2.70;;
55776;SDS011;54079;44.540;18.784;2022-08-03T14:28:50;3.13;;;2.70;;
55776;SDS011;54079;44.540;18.784;2022-08-03T14:31:16;3.20;;;2.55;;
55776;SDS011;54079;44.540;18.784;2022-08-03T14:33:42;3.33;;;3.03;;
55776;SDS011;54079;44.540;18.784;2022-08-03T14:36:08;2.63;;;2.40;;
55776;SDS011;54079;44.540;18.784;2022-08-03T14:38:34;2.78;;;2.58;;
55776;SDS011;54079;44.540;18.784;2022-08-03T14:41:00;4.78;;;2.47;;
55776;SDS011;54079;44.540;18.784;2022-08-03T14:43:26;4.95;;;3.28;;
55776;SDS011;54079;44.540;18.784;2022-08-03T14:45:52;4.70;;;4.32;;
55776;SDS011;54079;44.540;18.784;2022-08-03T14:48:21;4.15;;;3.15;;
55776;SDS011;54079;44.540;18.784;2022-08-03T14:50:49;3.53;;;3.22;;
55776;SDS011;54079;44.540;18.784;2022-08-03T14:53:16;3.70;;;3.08;;
55776;SDS011;54079;44.540;18.784;2022-08-03T14:55:43;3.67;;;3.38;;
55776;SDS011;54079;44.540;18.784;2022-08-03T14:58:11;6.47;;;5.88;;
55776;SDS011;54079;44.540;18.784;2022-08-03T15:00:37;3.63;;;3.33;;
55776;SDS011;54079;44.540;18.784;2022-08-03T15:03:02;6.28;;;5.68;;
55776;SDS011;54079;44.540;18.784;2022-08-03T15:05:29;2.97;;;2.60;;
55776;SDS011;54079;44.540;18.784;2022-08-03T15:07:55;3.08;;;2.75;;
55776;SDS011;54079;44.540;18.784;2022-08-03T15:10:21;4.88;;;4.43;;
55776;SDS011;54079;44.540;18.784;2022-08-03T15:12:47;4.50;;;3.80;;
55776;SDS011;54079;44.540;18.784;2022-08-03T15:15:13;11.73;;;10.57;;
55776;SDS011;54079;44.540;18.784;2022-08-03T15:17:39;6.03;;;5.45;;